Time;durP1;ratioP1;P1;durP2;ratioP2;P2;SDS_P1;SDS_P2;PMS_P1;PMS_P2;Temp;Humidity;BMP_temperature;BMP_pressure;BME280_temperature;BME280_humidity;BME280_pressure;Samples;Min_cycle;Max_cycle;Signal;HPM_P1;HPM_P2
2021/12/12 00:01:35;;;;;;;19.45;8.52;;;6.20;99.90;;;;;;6191440;23;20016;-94
2021/12/12 00:04:13;;;;;;;20.95;8.27;;;6.20;99.90;;;;;;6168140;23;20020;-92
2021/12/12 00:06:46;;;;;;;17.17;9.15;;;6.20;99.90;;;;;;6168315;23;20025;-95
2021/12/12 00:09:24;;;;;;;18.88;8.50;;;6.20;99.90;;;;;;6192602;23;20020;-93
2021/12/12 00:11:53;;;;;;;22.38;8.13;;;6.20;99.90;;;;;;6166451;23;20042;-95
2021/12/12 00:14:27;;;;;;;15.77;7.57;;;6.20;99.90;;;;;;6217162;23;20012;-91
2021/12/12 00:16:59;;;;;;;23.60;7.85;;;6.20;99.90;;;;;;6190667;23;20051;-94
2021/12/12 00:19:27;;;;;;;19.52;9.15;;;6.20;99.90;;;;;;6190952;23;20020;-94
2021/12/12 00:21:58;;;;;;;22.92;7.95;;;6.20;99.90;;;;;;6168363;23;20028;-92
2021/12/12 00:24:26;;;;;;;22.02;8.73;;;6.20;99.90;;;;;;6193900;23;20019;-92
2021/12/12 00:26:57;;;;;;;20.48;9.25;;;6.20;99.90;;;;;;6168343;23;20020;-94
2021/12/12 00:29:25;;;;;;;18.08;7.88;;;6.20;99.90;;;;;;6193479;23;20013;-93
2021/12/12 00:31:57;;;;;;;27.33;7.93;;;6.20;99.90;;;;;;6168243;23;20021;-95
2021/12/12 00:34:29;;;;;;;23.30;8.43;;;6.20;99.90;;;;;;6168458;23;20107;-92
2021/12/12 00:36:58;;;;;;;;;;;6.20;99.90;;;;;;6193758;23;20024;-94
2021/12/12 00:39:32;;;;;;;14.85;7.75;;;6.20;99.90;;;;;;6170004;23;19916;-92
2021/12/12 00:42:05;;;;;;;15.98;7.55;;;6.20;99.90;;;;;;6168432;23;20120;-95
2021/12/12 00:44:38;;;;;;;23.38;8.32;;;6.20;99.90;;;;;;6169105;23;20028;-94
2021/12/12 00:47:08;;;;;;;20.02;8.18;;;6.20;99.90;;;;;;6192043;23;20028;-92
2021/12/12 00:49:40;;;;;;;25.33;8.68;;;6.20;99.90;;;;;;6170507;23;20025;-92
2021/12/12 00:52:14;;;;;;;23.17;9.07;;;6.30;99.90;;;;;;6169286;23;20047;-94
2021/12/12 00:54:43;;;;;;;16.05;7.88;;;6.20;99.90;;;;;;6193764;23;20032;-95
2021/12/12 00:57:16;;;;;;;22.25;8.57;;;6.30;99.90;;;;;;6193498;23;20051;-93
2021/12/12 00:59:47;;;;;;;24.15;8.77;;;6.30;99.90;;;;;;6194429;23;20035;-93
2021/12/12 01:02:29;;;;;;;22.88;10.30;;;6.30;99.90;;;;;;6168730;23;20017;-92
2021/12/12 01:05:05;;;;;;;19.50;7.75;;;6.40;99.90;;;;;;6195297;23;20020;-95
2021/12/12 01:07:37;;;;;;;27.15;9.02;;;6.40;99.90;;;;;;6169332;23;20025;-95
2021/12/12 01:10:31;;;;;;;20.30;8.75;;;6.40;99.90;;;;;;6193441;23;20017;-96
2021/12/12 01:13:04;;;;;;;33.47;9.65;;;6.40;99.90;;;;;;6193361;23;20020;-94
2021/12/12 01:15:35;;;;;;;16.27;8.20;;;6.50;99.90;;;;;;6220499;23;20095;-92
2021/12/12 01:18:14;;;;;;;16.95;8.07;;;6.50;99.90;;;;;;6167249;23;20025;-94
2021/12/12 01:20:51;;;;;;;19.60;8.18;;;6.50;99.90;;;;;;6168925;23;20017;-91
2021/12/12 01:23:31;;;;;;;16.88;7.63;;;6.50;99.90;;;;;;6192252;23;20031;-94
2021/12/12 01:25:59;;;;;;;25.15;7.60;;;6.50;99.90;;;;;;6192596;23;20017;-94
2021/12/12 01:28:32;;;;;;;21.27;7.88;;;6.50;99.90;;;;;;6193086;23;20016;-92
2021/12/12 01:31:05;;;;;;;16.00;8.10;;;6.50;99.90;;;;;;6193226;23;20068;-95
2021/12/12 01:33:35;;;;;;;21.25;7.38;;;6.60;99.90;;;;;;6219294;23;20039;-93
2021/12/12 01:36:12;;;;;;;13.75;6.75;;;6.60;99.90;;;;;;6192967;23;20017;-92
2021/12/12 01:38:53;;;;;;;17.98;6.78;;;6.60;99.90;;;;;;6218964;23;20013;-93
2021/12/12 01:41:36;;;;;;;16.45;6.57;;;6.60;99.90;;;;;;6169127;23;20017;-92
2021/12/12 01:44:11;;;;;;;21.77;6.28;;;6.60;99.90;;;;;;6193500;23;20020;-92
2021/12/12 01:46:50;;;;;;;12.77;5.47;;;6.70;99.90;;;;;;6193639;23;20924;-92
2021/12/12 01:49:23;;;;;;;;;;;6.60;99.90;;;;;;6193850;23;20028;-92
2021/12/12 01:51:51;;;;;;;14.52;4.68;;;6.60;99.90;;;;;;6193093;23;19916;-93
2021/12/12 01:54:30;;;;;;;15.65;5.68;;;6.60;99.90;;;;;;6193244;23;20100;-91
2021/12/12 01:57:02;;;;;;;10.85;4.82;;;6.70;99.90;;;;;;6167496;23;20023;-92
2021/12/12 01:59:35;;;;;;;15.23;6.90;;;6.60;99.90;;;;;;6190937;23;20020;-95
2021/12/12 02:02:13;;;;;;;19.60;5.15;;;6.70;99.90;;;;;;6192602;23;20020;-93
2021/12/12 02:04:48;;;;;;;13.73;4.55;;;6.70;99.90;;;;;;6167559;23;20065;-96
2021/12/12 02:07:21;;;;;;;18.50;4.63;;;6.70;99.90;;;;;;6167230;23;20021;-94
2021/12/12 02:09:48;;;;;;;12.55;5.28;;;6.70;99.90;;;;;;6192221;23;20024;-93
2021/12/12 02:12:24;;;;;;;11.60;5.28;;;6.70;99.90;;;;;;6193944;23;20017;-92
2021/12/12 02:14:57;;;;;;;18.60;5.03;;;6.80;99.90;;;;;;6193200;23;20013;-92
2021/12/12 02:17:34;;;;;;;15.95;5.90;;;6.80;99.90;;;;;;6192492;23;20063;-95
2021/12/12 02:20:27;;;;;;;17.42;5.60;;;6.90;99.90;;;;;;6218163;23;20016;-94
2021/12/12 02:23:08;;;;;;;11.63;4.23;;;6.80;99.90;;;;;;6192573;23;20044;-94
2021/12/12 02:37:00;;;;;;;16.55;4.30;;;7.00;99.90;;;;;;6219004;23;20063;-93
2021/12/12 02:39:29;;;;;;;15.20;4.78;;;7.00;99.90;;;;;;6167228;23;20028;-92
2021/12/12 02:42:03;;;;;;;15.75;4.25;;;6.90;99.90;;;;;;6191840;23;20075;-93
2021/12/12 02:44:33;;;;;;;9.48;4.63;;;6.90;99.90;;;;;;6191591;23;20024;-94
2021/12/12 02:47:12;;;;;;;9.25;3.40;;;7.00;99.90;;;;;;6167690;23;20380;-96
2021/12/12 02:50:08;;;;;;;13.50;3.45;;;6.90;99.90;;;;;;6192317;23;20016;-92
2021/12/12 02:52:38;;;;;;;17.17;4.25;;;7.00;99.90;;;;;;6191872;23;20091;-93
2021/12/12 02:55:16;;;;;;;14.07;3.90;;;7.00;99.90;;;;;;6167614;23;20051;-94
2021/12/12 02:57:50;;;;;;;11.95;3.97;;;7.00;99.90;;;;;;6191473;23;20016;-94
2021/12/12 03:00:21;;;;;;;18.60;4.25;;;6.90;99.90;;;;;;6191332;23;20017;-92
2021/12/12 03:02:57;;;;;;;15.63;4.45;;;6.90;99.90;;;;;;6190715;23;20535;-95
2021/12/12 03:05:27;;;;;;;10.35;4.38;;;7.00;99.90;;;;;;6191991;23;20429;-93
2021/12/12 03:07:59;;;;;;;17.55;4.72;;;7.10;99.90;;;;;;6167576;23;20044;-92
2021/12/12 03:10:32;;;;;;;11.05;4.20;;;7.00;99.90;;;;;;6191212;23;20021;-94
2021/12/12 03:13:05;;;;;;;19.33;6.40;;;7.00;99.90;;;;;;6167562;23;20388;-95
2021/12/12 03:15:43;;;;;;;16.60;6.20;;;7.00;99.90;;;;;;6168327;23;20040;-95
2021/12/12 03:18:25;;;;;;;17.85;5.38;;;7.10;99.90;;;;;;6191444;23;20021;-91
2021/12/12 03:20:58;;;;;;;14.07;4.97;;;7.00;99.90;;;;;;6190751;23;20487;-94
2021/12/12 03:23:36;;;;;;;15.10;5.47;;;7.00;99.90;;;;;;6166121;23;20027;-92
2021/12/12 03:26:10;;;;;;;;;;;7.10;99.90;;;;;;6192511;23;20020;-93
2021/12/12 03:28:40;;;;;;;16.50;5.40;;;7.00;99.90;;;;;;6165729;23;19924;-92
2021/12/12 03:31:17;;;;;;;16.13;5.78;;;7.00;99.90;;;;;;6166686;23;20016;-92
2021/12/12 03:33:48;;;;;;;15.60;5.22;;;7.10;99.90;;;;;;6190306;23;20020;-92
2021/12/12 03:36:18;;;;;;;12.13;5.15;;;7.10;99.90;;;;;;6165711;23;20096;-94
2021/12/12 03:38:54;;;;;;;24.25;5.28;;;7.10;99.90;;;;;;6216755;23;20024;-92
2021/12/12 03:41:31;;;;;;;13.63;4.93;;;7.10;99.90;;;;;;6191813;23;20088;-91
2021/12/12 03:44:03;;;;;;;14.27;4.43;;;7.10;99.90;;;;;;6191231;23;20051;-94
2021/12/12 03:46:38;;;;;;;15.90;6.05;;;7.10;99.90;;;;;;6191526;23;20020;-93
2021/12/12 03:49:10;;;;;;;16.42;4.75;;;7.10;99.90;;;;;;6168488;23;20084;-95
2021/12/12 03:51:44;;;;;;;17.40;5.63;;;7.10;99.90;;;;;;6193741;23;20020;-95
2021/12/12 03:54:16;;;;;;;14.70;4.90;;;7.10;99.90;;;;;;6167663;23;20017;-96
2021/12/12 03:56:47;;;;;;;20.67;5.85;;;7.20;99.90;;;;;;6193374;23;20009;-94
2021/12/12 03:59:23;;;;;;;19.63;5.60;;;7.30;99.90;;;;;;6168869;23;20013;-94
2021/12/12 04:01:59;;;;;;;15.38;5.63;;;7.10;99.90;;;;;;6166704;23;20096;-93
2021/12/12 04:04:53;;;;;;;17.75;5.47;;;7.20;99.90;;;;;;6171130;23;20020;-94
2021/12/12 04:07:25;;;;;;;17.88;6.47;;;7.20;99.90;;;;;;6191226;23;20112;-93
2021/12/12 04:09:53;;;;;;;17.33;5.50;;;7.30;99.90;;;;;;6190405;23;20441;-94
2021/12/12 04:12:22;;;;;;;17.42;5.28;;;7.20;99.90;;;;;;6190635;23;20023;-92
2021/12/12 04:14:51;;;;;;;14.82;5.53;;;7.20;99.90;;;;;;6190278;23;20016;-95
2021/12/12 04:17:36;;;;;;;13.55;5.95;;;7.20;99.90;;;;;;6169475;23;20016;-93
2021/12/12 04:20:22;;;;;;;16.05;5.38;;;7.30;99.90;;;;;;6167715;23;20025;-93
2021/12/12 04:22:51;;;;;;;14.95;6.38;;;7.30;99.90;;;;;;6166059;23;20063;-92
2021/12/12 04:25:22;;;;;;;23.17;6.45;;;7.30;99.90;;;;;;6190718;23;20020;-92
2021/12/12 04:27:52;;;;;;;16.75;7.45;;;7.30;99.90;;;;;;6190201;23;20031;-94
2021/12/12 04:30:25;;;;;;;25.00;5.70;;;7.40;99.90;;;;;;6191696;23;20075;-94
2021/12/12 04:32:56;;;;;;;14.73;5.97;;;7.40;99.90;;;;;;6190272;23;20012;-93
2021/12/12 04:35:25;;;;;;;21.58;6.35;;;7.30;99.90;;;;;;6217027;23;20016;-93
2021/12/12 04:37:56;;;;;;;21.90;6.10;;;7.40;99.90;;;;;;6165967;23;20027;-93
2021/12/12 04:40:25;;;;;;;29.85;6.80;;;7.40;99.90;;;;;;6190549;23;20024;-93
2021/12/12 04:42:55;;;;;;;20.00;6.68;;;7.40;99.90;;;;;;6191177;23;20432;-94
2021/12/12 04:45:32;;;;;;;18.80;7.03;;;7.40;99.90;;;;;;6165513;23;20095;-94
2021/12/12 04:52:03;;;;;;;35.63;7.43;;;7.40;99.90;;;;;;6216209;23;20016;-93
2021/12/12 04:54:47;;;;;;;25.13;7.13;;;7.40;99.90;;;;;;6046319;23;20019;-91
2021/12/12 04:57:34;;;;;;;27.15;7.22;;;7.60;99.90;;;;;;6165844;23;20120;-93
2021/12/12 05:00:26;;;;;;;34.78;6.97;;;7.50;99.90;;;;;;6165777;23;20021;-93
2021/12/12 05:02:58;;;;;;;18.43;7.77;;;7.50;99.90;;;;;;6166171;23;20028;-93
2021/12/12 05:05:41;;;;;;;36.15;8.82;;;7.60;99.90;;;;;;6190465;23;20029;-94
2021/12/12 05:08:20;;;;;;;32.15;8.13;;;7.60;99.90;;;;;;6192483;23;20027;-93
2021/12/12 05:10:53;;;;;;;23.95;8.40;;;7.50;99.90;;;;;;6167344;23;20016;-95
2021/12/12 05:13:48;;;;;;;40.85;9.68;;;7.70;99.90;;;;;;6218640;23;20095;-94
2021/12/12 05:16:38;;;;;;;41.33;8.75;;;7.70;99.90;;;;;;6195691;23;20502;-94
2021/12/12 05:19:15;;;;;;;22.20;8.45;;;7.70;99.90;;;;;;6192953;23;20341;-93
2021/12/12 05:21:53;;;;;;;31.40;8.48;;;7.60;99.90;;;;;;6192830;23;20013;-94
2021/12/12 05:24:26;;;;;;;29.25;8.32;;;7.60;99.90;;;;;;6193020;23;20433;-93
2021/12/12 05:27:17;;;;;;;22.48;8.07;;;7.70;99.90;;;;;;6169156;23;20025;-93
2021/12/12 05:30:23;;;;;;;37.65;9.77;;;7.80;99.90;;;;;;6192979;23;20016;-95
2021/12/12 05:32:50;;;;;;;28.25;7.95;;;7.80;99.90;;;;;;6161205;23;20024;-94
2021/12/12 05:35:21;;;;;;;42.95;9.65;;;7.70;99.90;;;;;;6190645;23;20451;-93
2021/12/12 05:37:53;;;;;;;32.22;8.13;;;8.00;99.90;;;;;;6192817;23;20487;-93
2021/12/12 05:40:27;;;;;;;30.42;7.57;;;7.80;99.90;;;;;;6191913;23;20016;-95
2021/12/12 05:42:59;;;;;;;43.83;9.35;;;7.90;99.90;;;;;;6191581;23;20040;-95
2021/12/12 05:45:28;;;;;;;38.35;7.35;;;8.00;99.90;;;;;;6191656;23;20048;-94
2021/12/12 05:47:59;;;;;;;38.63;8.20;;;7.90;99.90;;;;;;6167588;23;20467;-92
2021/12/12 05:50:29;;;;;;;22.35;6.28;;;7.80;99.90;;;;;;6218293;23;20091;-95
2021/12/12 05:53:02;;;;;;;31.48;8.35;;;7.90;99.90;;;;;;6193013;23;20021;-92
2021/12/12 05:55:32;;;;;;;31.80;8.55;;;8.10;99.90;;;;;;6167524;23;20064;-93
2021/12/12 05:58:11;;;;;;;34.50;7.38;;;8.20;99.90;;;;;;6167484;23;20420;-94
2021/12/12 06:00:48;;;;;;;26.10;6.57;;;8.10;99.90;;;;;;6168068;23;20039;-94
2021/12/12 06:03:20;;;;;;;29.25;6.95;;;8.10;99.90;;;;;;6167999;23;20020;-91
2021/12/12 06:05:53;;;;;;;33.88;8.05;;;8.20;99.90;;;;;;6192467;23;20017;-94
2021/12/12 06:08:26;;;;;;;21.50;6.82;;;8.20;99.90;;;;;;6167412;23;20071;-94
2021/12/12 06:10:58;;;;;;;30.92;7.05;;;8.20;99.90;;;;;;6192863;23;20028;-95
2021/12/12 06:13:29;;;;;;;32.60;6.18;;;8.30;99.90;;;;;;6192230;23;20433;-94
2021/12/12 06:16:00;;;;;;;33.80;6.50;;;8.20;99.90;;;;;;6192150;23;20102;-94
2021/12/12 06:18:47;;;;;;;37.55;6.60;;;8.30;99.90;;;;;;6165989;23;20020;-94
2021/12/12 06:21:25;;;;;;;29.30;6.43;;;8.50;99.90;;;;;;6168113;23;20020;-94
2021/12/12 06:24:40;;;;;;;43.55;6.43;;;8.20;99.90;;;;;;6167344;23;20031;-93
2021/12/12 06:27:21;;;;;;;32.25;6.90;;;8.40;99.90;;;;;;6194008;23;20441;-95
2021/12/12 06:29:52;;;;;;;30.88;5.93;;;8.30;99.90;;;;;;6167527;23;20024;-94
2021/12/12 06:32:25;;;;;;;31.20;6.40;;;8.30;99.90;;;;;;6193025;23;20075;-94
2021/12/12 06:34:56;;;;;;;32.67;7.97;;;8.50;99.90;;;;;;6218141;23;20017;-96
2021/12/12 06:37:24;;;;;;;28.17;6.78;;;8.50;99.90;;;;;;6166934;23;20408;-93
2021/12/12 06:39:55;;;;;;;25.58;6.20;;;8.50;99.90;;;;;;6167534;23;20016;-95
2021/12/12 06:42:30;;;;;;;32.00;6.45;;;8.30;99.90;;;;;;6193257;23;20012;-94
2021/12/12 06:45:02;;;;;;;39.47;6.75;;;8.30;99.90;;;;;;6191310;23;20112;-93
2021/12/12 06:47:35;;;;;;;37.33;6.57;;;8.40;99.90;;;;;;6191815;23;20044;-92
2021/12/12 06:50:07;;;;;;;25.35;7.25;;;8.40;99.90;;;;;;6191714;23;20020;-94
2021/12/12 06:52:38;;;;;;;29.60;7.15;;;8.50;99.90;;;;;;6166307;23;20535;-94
2021/12/12 06:55:14;;;;;;;16.10;5.70;;;8.40;99.90;;;;;;6193357;23;20013;-94
2021/12/12 06:57:52;;;;;;;30.17;7.18;;;8.40;99.90;;;;;;6167132;23;20022;-95
2021/12/12 07:00:23;;;;;;;27.42;6.40;;;8.60;99.90;;;;;;6167184;23;20016;-93
2021/12/12 07:02:55;;;;;;;25.73;6.18;;;8.50;99.90;;;;;;6168142;23;20017;-93
2021/12/12 07:05:29;;;;;;;21.92;5.85;;;8.40;99.90;;;;;;6192752;23;20536;-93
2021/12/12 07:08:03;;;;;;;24.70;6.38;;;8.40;99.90;;;;;;6167565;23;20506;-94
2021/12/12 07:10:36;;;;;;;25.73;6.85;;;8.40;99.90;;;;;;6192284;23;20091;-93
2021/12/12 07:13:09;;;;;;;32.42;5.88;;;8.60;99.90;;;;;;6167591;23;20055;-94
2021/12/12 07:15:53;;;;;;;24.38;6.68;;;8.50;99.90;;;;;;6190870;23;20020;-94
2021/12/12 07:18:27;;;;;;;23.33;5.65;;;8.60;99.90;;;;;;6191744;23;20024;-93
2021/12/12 07:21:01;;;;;;;28.75;5.88;;;8.50;99.90;;;;;;6166469;23;20356;-93
2021/12/12 07:23:33;;;;;;;32.08;5.88;;;8.50;99.90;;;;;;6166832;23;20021;-93
2021/12/12 07:26:05;;;;;;;29.92;6.90;;;8.50;99.90;;;;;;6217080;23;20024;-95
2021/12/12 07:28:34;;;;;;;33.67;6.82;;;8.60;99.90;;;;;;6165025;23;20052;-94
2021/12/12 07:31:11;;;;;;;29.05;7.05;;;8.50;99.90;;;;;;6166658;23;20029;-92
2021/12/12 07:33:49;;;;;;;17.55;5.93;;;8.50;99.90;;;;;;6167475;23;20020;-93
2021/12/12 07:37:01;;;;;;;14.38;5.20;;;8.50;99.90;;;;;;6190855;23;20051;-94
2021/12/12 07:39:46;;;;;;;24.95;4.82;;;8.50;99.90;;;;;;6166709;23;20071;-94
2021/12/12 07:42:21;;;;;;;26.33;5.88;;;8.50;99.90;;;;;;6192132;23;20012;-93
2021/12/12 07:44:55;;;;;;;18.30;5.57;;;8.60;99.90;;;;;;6191256;23;20536;-91
2021/12/12 07:47:23;;;;;;;20.88;6.15;;;8.50;99.90;;;;;;6218853;23;20071;-93
2021/12/12 07:50:31;;;;;;;28.85;6.93;;;8.60;99.90;;;;;;6172761;23;20044;-95
2021/12/12 07:53:32;;;;;;;35.25;7.35;;;8.50;99.90;;;;;;6168532;23;20017;-94
2021/12/12 07:56:03;;;;;;;18.25;5.22;;;8.60;99.90;;;;;;6193367;23;20013;-94
2021/12/12 07:58:30;;;;;;;27.60;6.38;;;8.60;99.90;;;;;;6192031;23;20345;-92
2021/12/12 08:01:05;;;;;;;26.40;6.25;;;8.60;99.90;;;;;;6192354;23;20444;-94
2021/12/12 08:03:38;;;;;;;26.02;5.55;;;8.60;99.90;;;;;;6194625;23;20013;-93
2021/12/12 08:06:13;;;;;;;31.13;5.80;;;8.60;99.90;;;;;;6194358;23;20013;-93
2021/12/12 08:08:45;;;;;;;36.60;5.47;;;8.70;99.90;;;;;;6165652;23;20024;-95
2021/12/12 08:11:23;;;;;;;23.70;5.18;;;8.50;99.90;;;;;;6194702;23;20030;-92
2021/12/12 08:13:55;;;;;;;16.40;5.03;;;8.80;99.90;;;;;;6194288;23;20031;-95
2021/12/12 08:16:24;;;;;;;35.20;5.82;;;8.70;99.90;;;;;;6193982;23;20028;-93
2021/12/12 08:19:01;;;;;;;27.88;4.95;;;8.70;99.90;;;;;;6169410;23;20020;-95
2021/12/12 08:21:33;;;;;;;26.95;5.00;;;8.70;99.90;;;;;;6191235;23;20460;-94
2021/12/12 08:24:10;;;;;;;31.95;5.45;;;8.60;99.90;;;;;;6193035;23;20020;-94
2021/12/12 08:26:44;;;;;;;31.90;6.25;;;8.70;99.90;;;;;;6190621;23;20512;-93
2021/12/12 08:29:14;;;;;;;29.40;5.85;;;8.80;99.90;;;;;;6190717;23;20020;-94
2021/12/12 08:31:54;;;;;;;14.13;3.63;;;8.80;99.90;;;;;;6166148;23;20024;-94
2021/12/12 08:34:27;;;;;;;20.42;4.78;;;8.80;99.90;;;;;;6188927;23;20025;-92
2021/12/12 08:40:57;;;;;;;23.27;4.50;;;8.80;99.90;;;;;;6212856;23;20017;-95
2021/12/12 08:43:59;;;;;;;25.38;4.13;;;8.80;99.90;;;;;;6215206;23;20027;-96
2021/12/12 08:46:30;;;;;;;23.08;3.78;;;8.70;99.90;;;;;;6188788;23;20096;-91
2021/12/12 08:49:00;;;;;;;20.25;3.72;;;8.70;99.90;;;;;;6166740;23;20016;-92
2021/12/12 08:51:38;;;;;;;21.50;5.05;;;8.80;99.90;;;;;;6167042;23;20023;-93
2021/12/12 08:55:00;;;;;;;18.13;4.43;;;8.90;99.90;;;;;;6195488;23;20024;-95
2021/12/12 08:57:41;;;;;;;18.40;4.57;;;8.80;99.90;;;;;;6157955;23;20016;-94
2021/12/12 09:00:54;;;;;;;17.23;3.70;;;9.00;99.90;;;;;;6195304;22;20027;-93
2021/12/12 09:03:44;;;;;;;25.42;5.03;;;9.00;99.90;;;;;;6198699;23;20091;-94
2021/12/12 09:07:36;;;;;;;;;;;;;;;;;;;;;
2021/12/12 09:11:11;;;;;;;16.85;3.53;;;9.10;99.90;;;;;;6213849;23;20012;-94
2021/12/12 09:14:44;;;;;;;;;;;;;;;;;;;;;
2021/12/12 09:18:24;;;;;;;20.17;3.55;;;9.00;99.90;;;;;;6097933;23;20045;-92
2021/12/12 09:24:29;;;;;;;15.75;3.78;;;9.00;99.90;;;;;;6250361;22;20031;-91
2021/12/12 09:27:14;;;;;;;20.58;4.55;;;9.10;99.90;;;;;;6222086;23;20050;-91
2021/12/12 09:29:53;;;;;;;15.00;3.75;;;9.10;99.90;;;;;;6222354;23;20452;-92
2021/12/12 09:32:48;;;;;;;25.38;3.47;;;9.00;99.90;;;;;;6169902;23;20440;-93
2021/12/12 09:35:57;;;;;;;15.95;4.20;;;9.10;99.90;;;;;;6224563;23;20012;-93
2021/12/12 09:38:51;;;;;;;12.07;2.95;;;9.10;99.90;;;;;;6191636;23;20017;-92
2021/12/12 09:44:54;;;;;;;29.42;4.32;;;9.20;99.90;;;;;;6191933;23;20020;-94
2021/12/12 09:51:16;;;;;;;16.98;3.90;;;9.20;99.90;;;;;;6160288;23;20051;-95
2021/12/12 09:54:19;;;;;;;14.85;3.70;;;9.20;99.90;;;;;;6193190;23;20020;-92
2021/12/12 09:57:02;;;;;;;17.65;5.13;;;9.20;99.90;;;;;;6164927;23;20556;-95
2021/12/12 09:59:58;;;;;;;20.48;3.90;;;9.30;99.90;;;;;;6169887;23;20027;-93
2021/12/12 10:02:41;;;;;;;21.63;3.70;;;9.00;99.90;;;;;;6193848;23;20024;-94
2021/12/12 10:05:46;;;;;;;16.55;5.50;;;9.10;99.90;;;;;;6193752;23;20020;-95
2021/12/12 10:09:01;;;;;;;23.85;4.10;;;9.20;99.90;;;;;;6202754;23;20031;-93
2021/12/12 10:11:55;;;;;;;21.98;3.78;;;9.10;99.90;;;;;;6191383;23;20031;-93
2021/12/12 10:14:46;;;;;;;24.90;3.90;;;9.10;99.90;;;;;;6166053;23;20103;-92
2021/12/12 10:17:40;;;;;;;13.57;2.63;;;9.10;99.90;;;;;;6166658;23;20108;-92
2021/12/12 10:20:18;;;;;;;21.73;4.45;;;9.10;99.90;;;;;;6191550;23;20023;-91
2021/12/12 10:23:23;;;;;;;11.30;3.40;;;9.10;99.90;;;;;;6166405;23;20017;-91
2021/12/12 10:26:16;;;;;;;20.33;4.68;;;9.20;99.90;;;;;;6190775;23;20524;-91
2021/12/12 10:28:49;;;;;;;11.60;3.63;;;9.40;99.90;;;;;;6191266;23;20403;-92
2021/12/12 10:31:34;;;;;;;20.38;3.90;;;9.20;99.90;;;;;;6166292;23;20421;-91
2021/12/12 10:34:08;;;;;;;17.27;3.40;;;9.30;99.90;;;;;;6191456;23;20028;-94
2021/12/12 10:41:04;;;;;;;12.35;3.08;;;9.30;99.90;;;;;;6222614;23;20348;-93
2021/12/12 10:43:52;;;;;;;16.67;2.85;;;9.40;99.90;;;;;;6171622;23;20074;-90
2021/12/12 10:56:34;;;;;;;13.88;3.67;;;9.40;99.90;;;;;;6170528;23;20036;-91
2021/12/12 10:59:35;;;;;;;22.98;4.47;;;9.30;99.90;;;;;;6077087;23;20018;-92
2021/12/12 11:02:37;;;;;;;;;;;;;;;;;;;;;
2021/12/12 11:05:41;;;;;;;13.60;3.40;;;9.30;99.90;;;;;;6082110;23;19917;-91
2021/12/12 11:09:11;;;;;;;17.50;2.95;;;9.40;99.90;;;;;;6057049;23;20070;-91
2021/12/12 11:12:13;;;;;;;16.77;4.10;;;9.50;99.90;;;;;;6076381;23;20030;-91
2021/12/12 11:15:17;;;;;;;15.95;3.10;;;9.50;99.90;;;;;;6075827;23;20024;-93
2021/12/12 11:18:27;;;;;;;14.23;3.53;;;9.40;99.90;;;;;;6099963;23;20022;-93
2021/12/12 11:27:35;;;;;;;14.68;2.88;;;9.50;99.90;;;;;;6247662;22;20085;-95
2021/12/12 11:31:02;;;;;;;19.38;3.80;;;9.40;99.90;;;;;;6249271;22;20011;-92
2021/12/12 11:35:21;;;;;;;12.50;4.50;;;9.60;99.90;;;;;;6114598;23;20085;-95
2021/12/12 11:51:51;;;;;;;17.42;3.03;;;9.80;99.90;;;;;;6057363;23;20101;-94
2021/12/12 11:55:32;;;;;;;17.37;4.47;;;9.60;99.90;;;;;;6109230;23;20105;-93
2021/12/12 11:58:54;;;;;;;24.48;4.30;;;9.70;99.90;;;;;;5982335;24;20263;-95
2021/12/12 12:05:25;;;;;;;23.58;4.25;;;9.80;99.90;;;;;;6248897;23;20032;-93
2021/12/12 12:13:24;;;;;;;14.23;3.75;;;9.70;99.90;;;;;;6216464;23;20062;-93
2021/12/12 12:16:58;;;;;;;16.20;3.15;;;9.80;99.90;;;;;;6196930;23;20017;-93
2021/12/12 12:19:43;;;;;;;16.67;4.22;;;9.80;99.90;;;;;;6169460;23;20019;-92
2021/12/12 12:22:34;;;;;;;19.70;4.00;;;9.80;99.90;;;;;;6192596;23;20017;-92
2021/12/12 12:25:20;;;;;;;13.45;3.25;;;9.60;99.90;;;;;;6193262;23;20019;-93
2021/12/12 12:28:09;;;;;;;25.33;4.85;;;9.50;99.90;;;;;;6192169;23;20059;-93
2021/12/12 12:31:36;;;;;;;15.77;4.68;;;9.80;99.90;;;;;;6169482;23;20044;-92
2021/12/12 12:34:43;;;;;;;21.40;4.45;;;10.00;99.90;;;;;;6042542;23;20091;-93
2021/12/12 13:31:40;;;;;;;16.02;3.67;;;10.10;99.90;;;;;;6225664;22;20082;-91
2021/12/12 18:18:43;;;;;;;13.77;4.47;;;9.80;99.90;;;;;;6218707;23;20027;-95
2021/12/12 18:21:33;;;;;;;32.42;5.32;;;9.70;99.90;;;;;;6188524;23;20344;-93
2021/12/12 18:24:16;;;;;;;17.38;4.10;;;9.80;99.90;;;;;;6168228;23;20040;-93
2021/12/12 22:28:06;;;;;;;;;;;;;;;;;;;;;
